Aeroporto :
LOGIN :

Iscrizione | Disclaimer

   EN    FR    IT 

 










Sommario :    VFR   VFR Marginale   IFR   IFR Intensivo   IFR Molto Intensivo
Visibilità : 
Base nubi : 
>= 8 km
>= 3000ft
5 / 8 km
1000 / 3000 ft
1500m / 5 km
500 / 1000 ft
800 / 1500m
200 / 500 ft
< 800m
< 200 ft
Simboli :   Temporali  Nebbia  Neve Forte  Precipitazioni Forti  Vento > 20 kt
SIGMETs :   Varie  Temporali  Ghiacco  Turbolenza  Onda orograficha  Ceneri Vulcaniche






- Altitudine del aeroporto : 289 ft
- Codice IATA : ZAD


LDZD - Zadar

ULTIMO METAR :
  • 101330Z 32014KT 290V350 CAVOK 24/01 Q1020 NOSIG

METARs OBSOLETI :
  • 101300Z 32013KT 270V360 CAVOK 24/02 Q1020 NOSIG
  • 101230Z 29009KT 250V010 CAVOK 25/01 Q1020 NOSIG
  • 101200Z 32009KT 290V360 CAVOK 25/01 Q1020 NOSIG
  • 101130Z 34009KT 280V040 CAVOK 25/00 Q1021 NOSIG
  • 101100Z VRB07KT CAVOK 25/M00 Q1021 BECMG 30010KT

TAF TAF LDZD
Valido dal 10 a 12 ore il 11 a 12 ore UTC


101125Z 1012/1112 31012KT CAVOK TX25/1012Z TN06/1105Z
BECMG 1017/1019 VRB02KT
BECMG 1109/1111 30008KT



MetMap, La meteo Aeronautica in un colpo d'occhio ! - Copyright ORBIFLY Dicembre 2007 - Disclaimer

ORBIFLY MET'MAP TEAM :

Programmazione e sviluppo : Alexandra Zaïnal
Concezione : Baudouin d'Aumeries
Aiuto per la programmazione : Marc-Olivier Méhu
Supporto tecnico e logistico : Manuel Goepfert
Aiuto per la traduzione : Arnaldo La Scala

Contatto : metmap@orbifly.com




FONTI E CREDITI :

   NOAA